Terminal Aerodrome Forecast
Issued by NWS

Home | Current Version | Previous Version | Text Only | Print | Product List | Glossary On
Versions: 1 2 3 4 5 6 7 8 9 10 11 12 13 14 15 16 17 18 19 20 21 22 23 24 25 26 27 28 29 30 31 32 33 34 35 36 37
000
FTUS43 KDLH 210628 AAB
TAFHYR
TAF AMD
KHYR 210628Z 2106/2206 28006G17KT P6SM BKN012 OVC018
     FM211000 26005KT 2SM BR SCT004 OVC006
     FM211300 25003KT 3/4SM BR SCT002 OVC004
     FM211500 21005KT 2SM BR SCT004 OVC007
     FM211700 20008KT P6SM FEW200=

USA.gov is the U.S. government's official web portal to all federal, state and local government web resources and services.